Forside
METAR-TAF:

METAR-TAF

Lufthavne :

Stevens Point Municipal Airport

Stevens Point, Wisconsin, USA

Breddekreds: 44-32-42N, længdekreds: 089-31-49W, højde: 338 m

Aktuelle vejr

Denne rapport blev lavet for 39 minutter siden, kl. 03:15 UTC
Vind 12 kt fra østsydøst
Temperatur -5°C
Fugtighed 100%
Tryk 1022 hPa
Sigt: 4.0 km
Overskyet i en højde af 1100 ft
ukendt

METAR: KSTE 180315Z AUTO 11012KT 2 1/2SM UP OVC011 M05/M05 A3017 RMK AO2 T10501055

Tid: 21:54 (03:54 UTC)


TAF: fraværende

Vejrobservationer og prognoser fra mere end 4000 lufthavne (METAR og TAF).

De gule og røde prikker repræsenterer de meteorologiske stationer.

Flyt musen over at se navnet på stationen.

Så klik over at se vejr observationer og prognoser.

At skifte det kort: Klik på de grønne knapper med et sort kors for at zoome ind; på den grønne knap med en bindestreg for at zoome ud; eller på de grønne pile for tilstødende kort.


METAR-TAF: